Flight Track Log - Related Links

Times and Time Zones

All times are in EDT time to prevent confusion due to time zone crossing. See the WEW1540 flight status page for this flight to view local times or setup timezone preferences in your user account.

Time Position Orientation Groundspeed Altitude Reporting Facility
EDT Latitude Longitude Course Direction KTS MPH feet Rate Location/Type
Wed 09:11:00 AM 50.6855 -108.1513 323° Northwest  Level FlightAware Approximate
Wed 09:12:00 AM 50.7162 -108.1880 323° Northwest  Level FlightAware Approximate
Wed 09:13:00 AM 50.7469 -108.2247 323° Northwest  Level FlightAware Approximate
Wed 09:14:00 AM 50.7776 -108.2614 323° Northwest  Level FlightAware Approximate
Wed 09:15:00 AM 50.8083 -108.2982 323° Northwest  Level FlightAware Approximate
Wed 09:16:00 AM 50.8390 -108.3350 323° Northwest  Level FlightAware Approximate
Wed 09:17:00 AM 50.8697 -108.3719 323° Northwest  Level FlightAware Approximate
Wed 09:18:00 AM 50.9003 -108.4088 323° Northwest  Level FlightAware Approximate
Wed 09:19:00 AM 50.9310 -108.4458 323° Northwest  Level FlightAware Approximate
Wed 09:20:00 AM 50.9616 -108.4828 323° Northwest  Level FlightAware Approximate
Wed 09:21:00 AM 50.9922 -108.5199 323° Northwest  Level FlightAware Approximate
Wed 09:22:00 AM 51.0229 -108.5571 323° Northwest  Level FlightAware Approximate
Wed 09:23:00 AM 51.0535 -108.5942 323° Northwest  Level FlightAware Approximate
Wed 09:24:00 AM 51.0840 -108.6314 323° Northwest  Level FlightAware Approximate
Wed 09:25:00 AM 51.1146 -108.6687 323° Northwest  Level FlightAware Approximate
Wed 09:26:00 AM 51.1452 -108.7060 323° Northwest  Level FlightAware Approximate
Wed 09:27:00 AM 51.1757 -108.7434 323° Northwest  Level FlightAware Approximate
Wed 09:28:00 AM 51.2063 -108.7808 322° Northwest  Level FlightAware Approximate
Wed 09:29:00 AM 51.2368 -108.8183 322° Northwest  Level FlightAware Approximate
Wed 09:30:00 AM 51.2673 -108.8558 322° Northwest  Level FlightAware Approximate
Wed 09:31:00 AM 51.2978 -108.8934 322° Northwest  Level FlightAware Approximate
Wed 09:32:00 AM 51.3259 -108.9350 309° West  Level FlightAware Approximate
Wed 09:33:00 AM 51.3499 -108.9831 309° West  Level FlightAware Approximate
Wed 09:34:00 AM 51.3805 -109.0205 323° Northwest  Level FlightAware Approximate
Wed 09:35:00 AM 51.4112 -109.0579 323° Northwest  Level FlightAware Approximate
Wed 09:36:00 AM 51.4418 -109.0953 323° Northwest  Level FlightAware Approximate
Wed 09:37:00 AM 51.4724 -109.1328 323° Northwest  Level FlightAware Approximate
Wed 09:38:00 AM 51.5000 -109.1667 323° Northwest  Level FlightAware Approximate
Wed 09:39:00 AM 51.5175 -109.1808 323° Northwest  Level Estimated
Wed 09:40:00 AM 51.5175 -109.1808 323° Northwest  Level Estimated
Wed 09:41:00 AM 51.5175 -109.1808 323° Northwest  Level Estimated
Wed 09:42:00 AM 51.5175 -109.1808 323° Northwest  Level Estimated
Wed 09:43:00 AM 51.5175 -109.1808 323° Northwest  Level Estimated
Wed 09:44:00 AM 51.5175 -109.1808 323° Northwest  Level Estimated
Wed 09:45:00 AM 51.5175 -109.1808 323° Northwest  Level Estimated
Wed 09:46:00 AM 51.5175 -109.1808 323° Northwest  Level Estimated
Wed 09:47:00 AM 51.5175 -109.1808 323° Northwest  Level Estimated
Wed 09:48:00 AM 51.5175 -109.1808 323° Northwest  Level Estimated
Wed 09:49:00 AM 51.5175 -109.1808 323° Northwest  Level Estimated
Wed 09:50:00 AM 51.5175 -109.1808 323° Northwest  Level Estimated
Wed 09:51:00 AM 51.5175 -109.1808 323° Northwest  Level Estimated
Wed 09:52:00 AM 51.5175 -109.1808 323° Northwest  Level Estimated

Login

Don't have an account? Register now (free) for customized features, flight alerts, and more!